Flight Track Log - Related Links

Times and Time Zones

All times are in EDT time to prevent confusion due to time zone crossing. See the FDX437 flight status page for this flight to view local times or setup timezone preferences in your user account.

Time Position Orientation Groundspeed Altitude Reporting Facility
EDT Latitude Longitude Course Direction KTS MPH feet Rate Location/Type
Sat 09:02:17 AM 41.3840 -81.8780 210° Southwest 2,800  Level FlightAware ADS-B
Sat 09:02:47 AM 41.3570 -81.8930 203° Southwest 3,800 593 Climbing FlightAware ADS-B
Sat 09:03:02 AM 41.3370 -81.9050 204° Southwest 5,200 533 Climbing FlightAware ADS-B
Sat 09:03:27 AM 41.3060 -81.9220 202° Southwest 7,600 422 Climbing FlightAware ADS-B
Sat 09:04:12 AM 41.2490 -81.9400 193° South 11,100 219 Climbing FlightAware ADS-B
Sat 09:04:47 AM 41.1990 -81.9550 193° South 11,600 -108 Climbing FlightAware ADS-B
Sat 09:05:32 AM 41.1340 -81.9730 192° South 11,600 -166 Level FlightAware ADS-B
Sat 09:06:17 AM 41.0690 -81.9920 192° South 11,600 -180 Level FlightAware ADS-B
Sat 09:06:57 AM 41.0110 -82.0080 192° South 11,900 -197 Climbing FlightAware ADS-B
Sat 09:07:42 AM 40.9490 -82.0260 192° South 12,600 -254 Climbing FlightAware ADS-B
Sat 09:08:22 AM 40.8940 -82.0510 199° South 12,600 -387 Level FlightAware ADS-B
Sat 09:09:02 AM 40.8440 -82.0870 209° Southwest 12,600 -430 Level FlightAware ADS-B
Sat 09:09:42 AM 40.7950 -82.1240 210° Southwest 12,600 -483 Level FlightAware ADS-B
Sat 09:10:17 AM 40.7510 -82.1570 210° Southwest 12,600 -551 Level FlightAware ADS-B
Sat 09:11:02 AM 40.6950 -82.1980 209° Southwest 11,100 -629 Descending FlightAware ADS-B
Sat 09:11:47 AM 40.6390 -82.2370 208° Southwest 9,800 -325 Descending FlightAware ADS-B
Sat 09:12:02 AM 40.6200 -82.2510 209° Southwest 9,600 76 Descending FlightAware ADS-B
Sat 09:12:42 AM 40.5660 -82.2850 206° Southwest 9,600 168 Level FlightAware ADS-B
Sat 09:13:07 AM 40.5350 -82.3030 204° Southwest 9,600 233 Level FlightAware ADS-B
Sat 09:13:27 AM 40.5090 -82.3180 204° Southwest 9,700 308 Climbing FlightAware ADS-B
Sat 09:14:25 AM 40.4331 -82.3617 204° Southwest 310 357 10,000 151 Climbing Indianapolis Center
Sat 09:15:26 AM 40.3547 -82.4092 205° Southwest 307 353 10,000  Level Indianapolis Center
Sat 09:16:27 AM 40.2764 -82.4533 203° Southwest 306 352 10,000 -787 Level Indianapolis Center
Sat 09:17:28 AM 40.2019 -82.4986 205° Southwest 282 325 8,400 -1,415 Descending Indianapolis Center
Sat 09:18:30 AM 40.1336 -82.5408 205° Southwest 270 311 7,100 -879 Descending Indianapolis Center
Sat 09:19:24 AM 40.0703 -82.5828 207° Southwest 266 306 6,700 -496 Descending Indianapolis Center
Sat 09:20:31 AM 39.9983 -82.6267 205° Southwest 267 307 6,100 -938 Descending Indianapolis Center
Sat 09:21:32 AM 39.9306 -82.6708 207° Southwest 267 307 4,700 -1,438 Descending Indianapolis Center
Sat 09:22:32 AM 39.9000 -82.7517 244° Southwest 266 306 3,200 -968 Descending Indianapolis Center
Sat 09:23:36 AM 39.8842 -82.8278 255° West 224 258 2,700 -730 Descending Indianapolis Center
Sat 09:24:27 AM 39.8567 -82.8692 229° Southwest 154 177 1,800 -878 Descending Indianapolis Center
Sat 09:25:39 AM 39.8261 -82.9069 224° Southwest 150 173 900 -750 Descending Indianapolis Center
Sat 09:27:00 AM 39.8000 -82.9167 207° Southwest  Level FlightAware Approximate
Sat 09:34:00 AM 39.8138 -82.9278 207° Southwest  Level Estimated

Login

Don't have an account? Register now (free) for customized features, flight alerts, and more!